Tuesday, September 02, 2014
11:43 UTC
  |  Log In   |  Register Free
Airport Search:

Madison Airport
(I39)

Madison Airport Diagram
No Airport Diagram Available

FAA data valid effective July 24, 2014 until September 18, 2014 (unless otherwise noted).

 
 
 
 
 
 
 
 
 
 
 
 
 
 

Current Aviation Weather for Madison Airport (I39)

The most recent METAR observation for KDVK was updated at: 1055 UTC
METAR Summary (Translated METAR)
KDVK
021055Z AUTO 20004KT 10SM CLR 21/20 A3006 RMK AO2
KLEX
(28.6 nm NE from KDVK)
021054Z 20008KT 10SM CLR 24/20 A3001 RMK AO2 SLP153 T02390200
TAF Summary (Translated TAF)
KLEX
(28.6 nm NE from KDVK)
020522Z 0206/0306 20007KT P6SM FEW040 SCT100 FM021000 20009KT P6SM VCSH SCT040 BKN100 TEMPO 0211/0214 5SM -SHRA BKN035 FM021400 23011KT P6SM BKN035 BKN100 FM021800 23010KT P6SM VCTS BKN035CB FM030000 20005KT P6SM SCT040
KSME
(32.3 nm SE from KDVK)
020523Z 0206/0306 23005KT P6SM SCT050 FM021300 22005KT P6SM SCT040 BKN250 FM021900 24010G16KT P6SM VCTS BKN040CB FM030000 VRB03KT P6SM SCT050
  Airport Weather Conditions for I39

Current weather conditions are
not available for I39


The nearest NOAA weather station
is at DVK, (21 nm SW from I39)
  
 Current Weather at DVK
70° F
Fair
South winds at 4.6 mph
DVK NOAA Radar

Pressure: 30.06 in
Humidity: 94%
Wind: South at 4.6 MPH (4 KT)
Dew Point: 68.0°F
Visibility: 10.00 mi


Airport Weather Forecast for I39

Translated METAR and TAF for KDVK
Translated METAR for KDVK (1137 UTC 02 September 2014)
found at http://aviationweather.gov/adds/metars/
 
METAR text: KDVK 021115Z AUTO 20005KT 10SM CLR 21/20 A3006 RMK AO2
Conditions at: KDVK (DANVILLE , KY, US) observed 1115 UTC 02 September 2014
Temperature: 21.0°C (70°F)
Dewpoint: 20.0°C (68°F) [RH = 94%]
Pressure (altimeter): 30.06 inches Hg (1018.0 mb)
Winds: from the SSW (200 degrees) at 6 MPH (5 knots; 2.6 m/s)
Visibility: 10 or more miles (16+ km)
Ceiling: at least 12,000 feet AGL
Clouds: sky clear below 12,000 feet AGL
Weather: automated observation with no human augmentation;
there may or may not be significant weather present at this time
Translated TAF for KDVK

There is no translated TAF available for this airport

Find All Airport Services Find A Hotel Find A Rental Car Find A Golf Course Find A Restaurant $100 Hamburger



FBO's on the Field
FBO Company Facility Photos Services Transportation Aviation Fuel Prices: Prices include tax
Catering Weather Repair Courtesy Rental Type 100LL JetA JetA+ MOGAS 8087
 
Eastern Kentucky University

This FBO has not yet been rated
FS:Shell
Last Updated: Aug-29
Login to update fuel prices
SS:
Contact Eastern Kentucky UniversityMore FBO Information
 
Add another FBO Facility Photos Catering Weather Repair Courtesy Rental Type 100LL JetA JetA+ MOGAS 8087
Services Transportation Aviation Fuel Prices: Prices include tax


GlobalAir.com Airport Resource Center model-print
model-print
model-print
model-print